Time;durP1;ratioP1;P1;durP2;ratioP2;P2;SDS_P1;SDS_P2;PMS_P1;PMS_P2;Temp;Humidity;BMP_temperature;BMP_pressure;BME280_temperature;BME280_humidity;BME280_pressure;Samples;Min_cycle;Max_cycle;Signal;HPM_P1;HPM_P2
2023/01/18 00:00:36;;;;;;;15.95;7.55;;;0.50;1.00;;;;;;5071916;28;20028;-73
2023/01/18 00:03:03;;;;;;;16.55;8.45;;;0.70;1.00;;;;;;5071371;28;20086;-74
2023/01/18 00:05:29;;;;;;;13.60;7.70;;;0.80;1.00;;;;;;5071339;28;20024;-75
2023/01/18 00:07:55;;;;;;;15.13;7.80;;;0.80;1.00;;;;;;5071068;28;20085;-73
2023/01/18 00:10:22;;;;;;;16.95;8.32;;;0.90;1.00;;;;;;5070758;28;20040;-73
2023/01/18 00:12:48;;;;;;;15.73;8.02;;;0.90;1.00;;;;;;5071132;28;20024;-74
2023/01/18 00:15:14;;;;;;;15.52;7.93;;;0.80;1.00;;;;;;5070789;28;20056;-73
2023/01/18 00:17:52;;;;;;;15.85;7.88;;;0.80;99.90;;;;;;5072203;28;20021;-73
2023/01/18 00:20:23;;;;;;;15.88;8.55;;;0.70;99.90;;;;;;5074417;28;20037;-74
2023/01/18 00:22:49;;;;;;;16.50;8.13;;;0.60;99.90;;;;;;5074521;28;20017;-72
2023/01/18 00:25:16;;;;;;;17.27;8.38;;;0.50;99.90;;;;;;5074330;28;20078;-74
2023/01/18 00:27:52;;;;;;;17.33;8.48;;;0.50;99.90;;;;;;5074244;28;20021;-74
2023/01/18 00:30:21;;;;;;;17.40;7.78;;;0.50;99.90;;;;;;5073892;28;20075;-74
2023/01/18 00:32:48;;;;;;;12.35;7.63;;;0.50;99.90;;;;;;5073898;28;20488;-73
2023/01/18 00:35:14;;;;;;;13.85;7.70;;;0.50;99.90;;;;;;5074065;28;20051;-72
2023/01/18 00:37:40;;;;;;;17.40;7.65;;;0.50;99.90;;;;;;5073956;28;20031;-73
2023/01/18 00:40:07;;;;;;;14.27;7.75;;;0.40;99.90;;;;;;5074195;28;20111;-74
2023/01/18 00:45:39;;;;;;;13.77;6.50;;;0.40;99.90;;;;;;5011379;28;20028;-72
2023/01/18 00:48:05;;;;;;;11.48;7.28;;;0.40;99.90;;;;;;5011436;28;20217;-74
2023/01/18 00:50:31;;;;;;;14.00;7.05;;;0.30;99.90;;;;;;5040667;28;20036;-74
2023/01/18 00:52:58;;;;;;;13.48;7.38;;;0.40;99.90;;;;;;5072366;28;20154;-73
2023/01/18 00:55:24;;;;;;;12.88;6.68;;;0.60;99.90;;;;;;5072396;28;20020;-73
2023/01/18 00:57:50;;;;;;;13.73;7.25;;;0.50;99.90;;;;;;5073624;28;20028;-73
2023/01/18 01:00:18;;;;;;;15.60;7.75;;;0.60;99.90;;;;;;5073396;28;20025;-73
2023/01/18 01:02:44;;;;;;;16.20;7.80;;;0.60;99.90;;;;;;5073452;28;20025;-73
2023/01/18 01:08:07;;;;;;;10.65;6.80;;;0.50;99.90;;;;;;5073722;28;20032;-74
2023/01/18 01:10:34;;;;;;;14.02;6.60;;;0.30;99.90;;;;;;5073380;28;20029;-73
2023/01/18 01:26:41;;;;;;;11.95;6.18;;;0.70;99.90;;;;;;5073880;28;20070;-73
2023/01/18 01:29:07;;;;;;;11.02;5.80;;;0.70;99.90;;;;;;5073041;28;20031;-74
2023/01/18 01:31:33;;;;;;;12.10;6.10;;;0.70;99.90;;;;;;5071817;28;20036;-72
2023/01/18 01:33:58;;;;;;;9.15;5.65;;;0.60;99.90;;;;;;5073050;28;20025;-73
2023/01/18 01:36:26;;;;;;;10.43;5.47;;;0.70;99.90;;;;;;5071718;28;20025;-72
2023/01/18 01:38:53;;;;;;;15.85;6.05;;;0.70;99.90;;;;;;5073167;28;20029;-72
2023/01/18 01:41:32;;;;;;;10.50;5.50;;;0.80;99.90;;;;;;5072264;28;20389;-72
2023/01/18 01:44:03;;;;;;;11.50;5.30;;;0.90;99.90;;;;;;5072910;28;20103;-72
2023/01/18 01:46:41;;;;;;;11.18;5.72;;;1.00;99.90;;;;;;5071350;28;20460;-73
2023/01/18 01:49:12;;;;;;;10.02;4.43;;;1.10;99.90;;;;;;5072574;28;20047;-72
2023/01/18 01:51:41;;;;;;;8.43;4.40;;;1.30;99.90;;;;;;5072451;28;20126;-72
2023/01/18 01:54:19;;;;;;;11.90;5.10;;;1.50;99.90;;;;;;5071216;28;20048;-72
2023/01/18 01:56:47;;;;;;;13.18;5.25;;;1.30;99.90;;;;;;5071172;28;20112;-71
2023/01/18 01:59:14;;;;;;;6.10;4.57;;;1.20;99.90;;;;;;5072181;28;20028;-73
2023/01/18 02:01:42;;;;;;;10.35;5.13;;;0.90;99.90;;;;;;5072332;28;20028;-73
2023/01/18 02:04:09;;;;;;;6.80;4.80;;;0.80;99.90;;;;;;5072374;28;20028;-73
2023/01/18 02:06:37;;;;;;;8.32;4.63;;;0.70;99.90;;;;;;5072315;28;20473;-74
2023/01/18 02:09:13;;;;;;;8.25;4.20;;;0.70;99.90;;;;;;5072218;28;20036;-74
2023/01/18 02:11:40;;;;;;;9.68;4.30;;;0.60;99.90;;;;;;5072178;28;20037;-73
2023/01/18 02:14:11;;;;;;;8.02;4.45;;;0.50;99.90;;;;;;5071924;28;20016;-72
2023/01/18 02:16:52;;;;;;;8.70;4.18;;;0.50;99.90;;;;;;5072090;28;20404;-73
2023/01/18 02:19:51;;;;;;;10.38;4.28;;;0.60;99.90;;;;;;5070771;28;20051;-72
2023/01/18 02:22:56;;;;;;;6.88;3.53;;;0.60;99.90;;;;;;5071950;28;20029;-73
2023/01/18 02:25:41;;;;;;;12.38;4.35;;;0.60;99.90;;;;;;5071910;28;20025;-72
2023/01/18 02:28:31;;;;;;;6.13;3.95;;;0.60;99.90;;;;;;5071827;28;20047;-73
2023/01/18 02:31:15;;;;;;;6.03;4.80;;;0.90;99.90;;;;;;5071634;28;20044;-72
2023/01/18 02:34:00;;;;;;;7.55;3.70;;;1.10;99.90;;;;;;5071534;28;20028;-73
2023/01/18 02:36:48;;;;;;;10.70;4.32;;;1.40;99.90;;;;;;5071712;28;20080;-71
2023/01/18 02:39:38;;;;;;;5.07;3.53;;;1.40;99.90;;;;;;5071453;28;20031;-72
2023/01/18 02:48:04;;;;;;;8.15;3.70;;;1.70;99.90;;;;;;5071451;28;20055;-72
2023/01/18 02:50:30;;;;;;;13.63;3.72;;;1.70;99.90;;;;;;5071459;28;20146;-72
2023/01/18 02:52:56;;;;;;;9.00;3.90;;;1.70;99.90;;;;;;5071364;28;20021;-72
2023/01/18 02:55:40;;;;;;;10.23;4.18;;;1.70;99.90;;;;;;5071491;28;20032;-72
2023/01/18 02:58:15;;;;;;;5.75;3.63;;;1.90;99.90;;;;;;5071150;28;20032;-72
2023/01/18 03:00:49;;;;;;;8.27;4.32;;;1.70;99.90;;;;;;5071372;28;20039;-73
2023/01/18 03:03:18;;;;;;;4.78;3.17;;;1.70;99.90;;;;;;5071256;28;20050;-73
2023/01/18 03:05:45;;;;;;;5.38;3.30;;;1.60;99.90;;;;;;5071313;28;20593;-74
2023/01/18 03:08:26;;;;;;;5.15;3.42;;;1.60;99.90;;;;;;5069827;28;20078;-73
2023/01/18 03:11:17;;;;;;;9.18;3.60;;;1.50;99.90;;;;;;5071045;28;20032;-72
2023/01/18 03:13:57;;;;;;;5.75;3.03;;;1.40;99.90;;;;;;5071254;28;20093;-72
2023/01/18 03:16:25;;;;;;;5.93;3.28;;;1.30;99.90;;;;;;5069709;28;20043;-72
2023/01/18 03:18:59;;;;;;;5.40;3.05;;;1.20;99.90;;;;;;5071261;28;20095;-72
2023/01/18 03:21:35;;;;;;;6.20;3.22;;;1.20;99.90;;;;;;5069999;28;20020;-72
2023/01/18 03:24:04;;;;;;;8.70;2.88;;;1.20;99.90;;;;;;5071192;28;20477;-72
2023/01/18 03:26:32;;;;;;;3.67;2.65;;;1.30;99.90;;;;;;5071000;28;20024;-72
2023/01/18 03:35:09;;;;;;;5.43;3.17;;;1.30;99.90;;;;;;5070521;28;20035;-72
2023/01/18 03:37:40;;;;;;;3.97;2.92;;;1.20;99.90;;;;;;5070985;28;20023;-71
2023/01/18 03:40:19;;;;;;;6.40;3.40;;;1.00;99.90;;;;;;5070940;28;20056;-71
2023/01/18 03:43:04;;;;;;;4.93;2.92;;;0.90;99.90;;;;;;5070860;28;20528;-72
2023/01/18 03:45:38;;;;;;;6.18;3.35;;;0.70;99.90;;;;;;5071166;28;20025;-72
2023/01/18 03:48:07;;;;;;;8.30;3.88;;;0.60;99.90;;;;;;5069483;28;20029;-72
2023/01/18 03:50:48;;;;;;;4.82;3.38;;;0.60;99.90;;;;;;5070869;28;20037;-71
2023/01/18 03:53:37;;;;;;;4.38;2.92;;;0.60;99.90;;;;;;5075078;28;20017;-72
2023/01/18 03:56:29;;;;;;;8.25;3.85;;;0.50;99.90;;;;;;5075029;28;20028;-72
2023/01/18 03:58:59;;;;;;;6.72;3.63;;;0.60;99.90;;;;;;5074658;28;20483;-72
2023/01/18 04:01:25;;;;;;;4.43;3.28;;;0.70;99.90;;;;;;5073485;28;20029;-73
2023/01/18 04:03:52;;;;;;;6.93;3.45;;;0.80;99.90;;;;;;5074532;28;20031;-72
2023/01/18 04:06:21;;;;;;;5.20;3.03;;;0.80;99.90;;;;;;5074516;28;20081;-73
2023/01/18 04:08:51;;;;;;;7.22;3.60;;;0.80;99.90;;;;;;5074713;28;20017;-74
2023/01/18 04:11:17;;;;;;;6.50;3.40;;;0.80;99.90;;;;;;5074404;28;20103;-72
2023/01/18 04:13:42;;;;;;;4.57;3.33;;;0.90;99.90;;;;;;5074292;28;20020;-72
2023/01/18 04:16:08;;;;;;;5.90;3.67;;;1.00;99.90;;;;;;5063964;28;20098;-72
2023/01/18 04:18:34;;;;;;;6.22;3.85;;;1.00;99.90;;;;;;5054288;28;20497;-72
2023/01/18 04:21:00;;;;;;;9.38;3.97;;;1.00;99.90;;;;;;5054318;28;20444;-71
2023/01/18 04:23:26;;;;;;;10.60;4.38;;;1.00;99.90;;;;;;5054431;28;20096;-72
2023/01/18 04:25:51;;;;;;;11.50;4.22;;;1.00;99.90;;;;;;5054175;28;20083;-72
2023/01/18 04:28:24;;;;;;;7.55;3.90;;;0.90;99.90;;;;;;5057254;28;20025;-73
2023/01/18 04:30:53;;;;;;;9.98;3.83;;;0.90;99.90;;;;;;5056832;28;20051;-73
2023/01/18 04:33:20;;;;;;;5.85;4.18;;;0.90;99.90;;;;;;5056401;28;20044;-73
2023/01/18 04:35:47;;;;;;;7.57;3.80;;;1.10;99.90;;;;;;5055338;28;20021;-71
2023/01/18 04:38:13;;;;;;;10.07;4.40;;;1.10;99.90;;;;;;5055284;28;20029;-70
2023/01/18 04:40:39;;;;;;;5.35;3.65;;;1.00;99.90;;;;;;5054767;28;20169;-71
2023/01/18 04:43:04;;;;;;;10.30;4.43;;;1.00;99.90;;;;;;5054668;28;20154;-71
2023/01/18 04:45:30;;;;;;;8.68;4.13;;;1.00;99.90;;;;;;5053606;28;20175;-72
2023/01/18 04:47:56;;;;;;;6.15;5.18;;;1.10;99.90;;;;;;5054517;28;20482;-72
2023/01/18 04:50:22;;;;;;;12.43;4.13;;;1.20;99.90;;;;;;5054080;28;20180;-71
2023/01/18 04:52:48;;;;;;;10.23;4.80;;;1.20;99.90;;;;;;5053195;28;20256;-71
2023/01/18 04:55:14;;;;;;;11.68;3.95;;;1.30;99.90;;;;;;5053912;28;20021;-71
2023/01/18 04:57:42;;;;;;;7.15;4.28;;;1.20;99.90;;;;;;5053554;28;20040;-71
2023/01/18 05:00:09;;;;;;;7.18;4.43;;;1.10;99.90;;;;;;5052186;28;20421;-73
2023/01/18 05:02:35;;;;;;;4.72;3.55;;;1.00;99.90;;;;;;5052832;28;20500;-72
2023/01/18 05:05:03;;;;;;;7.35;4.30;;;1.00;99.90;;;;;;5053455;28;20025;-71
2023/01/18 05:07:32;;;;;;;7.53;3.85;;;0.90;99.90;;;;;;5052326;28;20083;-73
2023/01/18 05:09:59;;;;;;;7.57;3.83;;;0.80;99.90;;;;;;5053331;28;20055;-71
2023/01/18 05:12:24;;;;;;;6.07;4.13;;;0.80;99.90;;;;;;5053411;28;20033;-72
2023/01/18 05:14:50;;;;;;;8.57;4.25;;;0.90;99.90;;;;;;5051797;28;20048;-72
2023/01/18 05:17:16;;;;;;;5.03;3.58;;;1.00;99.90;;;;;;5051687;28;20024;-71
2023/01/18 05:19:41;;;;;;;6.47;3.97;;;1.20;99.90;;;;;;5053145;28;20083;-71
2023/01/18 05:22:07;;;;;;;5.43;3.83;;;1.30;99.90;;;;;;5051799;28;20025;-71
2023/01/18 05:24:33;;;;;;;6.35;3.38;;;1.30;99.90;;;;;;5052948;28;20470;-71
2023/01/18 05:26:59;;;;;;;6.30;2.92;;;1.20;99.90;;;;;;5053041;28;20060;-71
2023/01/18 05:29:24;;;;;;;5.28;3.53;;;1.50;99.90;;;;;;5052798;28;20044;-71
2023/01/18 05:31:51;;;;;;;8.55;3.25;;;1.70;99.90;;;;;;5051510;28;20485;-72
2023/01/18 05:34:17;;;;;;;6.90;2.75;;;1.80;99.90;;;;;;5052967;28;20029;-72
2023/01/18 05:36:42;;;;;;;5.07;2.83;;;1.90;99.90;;;;;;5052883;28;20105;-71
2023/01/18 05:39:10;;;;;;;4.80;2.80;;;2.10;99.90;;;;;;5062844;28;20028;-72
2023/01/18 05:41:36;;;;;;;6.07;3.08;;;2.20;99.90;;;;;;5052785;28;20036;-69
2023/01/18 05:44:02;;;;;;;6.85;3.47;;;2.20;99.90;;;;;;5052958;28;20033;-70
2023/01/18 05:46:27;;;;;;;10.55;3.03;;;2.10;99.90;;;;;;5052823;28;20101;-70
2023/01/18 05:48:58;;;;;;;5.68;2.90;;;2.00;99.90;;;;;;5052779;28;20543;-69
2023/01/18 05:51:24;;;;;;;5.22;3.17;;;2.10;99.90;;;;;;5052332;28;20028;-69
2023/01/18 05:53:50;;;;;;;3.78;2.35;;;2.10;99.90;;;;;;5052722;28;20025;-69
2023/01/18 05:56:16;;;;;;;5.20;3.50;;;2.20;99.90;;;;;;5059670;28;20025;-70
2023/01/18 05:58:41;;;;;;;7.20;3.22;;;2.10;99.90;;;;;;5070974;28;20028;-71
2023/01/18 06:01:07;;;;;;;5.00;2.88;;;2.00;99.90;;;;;;5056889;28;20037;-71
2023/01/18 06:03:33;;;;;;;8.60;3.33;;;2.00;99.90;;;;;;5051646;28;20039;-72
2023/01/18 06:06:00;;;;;;;10.38;3.33;;;1.90;99.90;;;;;;5052249;28;20029;-72
2023/01/18 06:08:26;;;;;;;5.95;3.05;;;1.90;99.90;;;;;;5061925;28;20025;-70
2023/01/18 06:10:57;;;;;;;7.28;2.85;;;1.80;99.90;;;;;;5052217;28;20579;-72
2023/01/18 06:13:24;;;;;;;4.60;2.65;;;1.80;99.90;;;;;;5060917;28;20095;-70
2023/01/18 06:15:50;;;;;;;4.28;2.83;;;1.90;99.90;;;;;;5067666;28;20470;-72
2023/01/18 06:18:16;;;;;;;3.97;2.97;;;1.90;99.90;;;;;;5059755;28;20032;-71
2023/01/18 06:20:42;;;;;;;5.00;2.65;;;2.00;99.90;;;;;;5055809;28;20055;-70
2023/01/18 06:23:08;;;;;;;6.85;3.05;;;2.00;99.90;;;;;;5054470;28;20029;-70
2023/01/18 06:25:34;;;;;;;12.75;5.30;;;2.00;99.90;;;;;;5065337;28;20050;-69
2023/01/18 06:28:01;;;;;;;5.63;3.30;;;1.90;99.90;;;;;;5062923;28;20040;-69
2023/01/18 06:30:27;;;;;;;5.05;2.83;;;1.80;99.90;;;;;;5072044;28;20519;-71
2023/01/18 06:32:53;;;;;;;7.55;3.40;;;1.60;99.90;;;;;;5071802;28;20024;-69
2023/01/18 06:35:19;;;;;;;6.82;2.80;;;1.60;99.90;;;;;;5063042;28;20098;-70
2023/01/18 06:37:45;;;;;;;9.05;3.17;;;1.70;99.90;;;;;;5066929;28;20029;-71
2023/01/18 06:40:11;;;;;;;6.18;2.97;;;1.90;99.90;;;;;;5049527;28;20028;-70
2023/01/18 06:42:37;;;;;;;6.43;3.35;;;2.00;99.90;;;;;;5050820;28;20056;-71
2023/01/18 06:45:03;;;;;;;5.22;3.30;;;2.10;99.90;;;;;;5049645;28;20029;-71
2023/01/18 06:47:29;;;;;;;7.72;2.80;;;2.10;99.90;;;;;;5050902;28;20032;-72
2023/01/18 06:49:55;;;;;;;12.18;3.75;;;2.10;99.90;;;;;;5050322;28;20033;-71
2023/01/18 06:52:21;;;;;;;10.10;3.58;;;2.00;99.90;;;;;;5053541;28;20037;-71
2023/01/18 06:54:47;;;;;;;10.20;3.35;;;1.90;99.90;;;;;;5055282;28;20024;-71
2023/01/18 06:57:13;;;;;;;10.48;3.55;;;1.90;99.90;;;;;;5071410;28;20669;-71
2023/01/18 06:59:39;;;;;;;6.22;3.53;;;2.00;99.90;;;;;;5069364;28;20028;-72
2023/01/18 07:02:05;;;;;;;6.43;3.92;;;2.00;99.90;;;;;;5067221;28;20035;-72
2023/01/18 07:04:32;;;;;;;7.90;4.30;;;2.00;99.90;;;;;;5052716;28;20028;-73
2023/01/18 07:06:58;;;;;;;9.40;4.32;;;2.00;99.90;;;;;;5062058;28;20170;-73
2023/01/18 07:09:24;;;;;;;8.95;4.25;;;2.10;99.90;;;;;;5064900;28;20107;-71
2023/01/18 07:11:49;;;;;;;7.57;3.97;;;2.20;99.90;;;;;;5070515;28;20381;-72
2023/01/18 07:14:15;;;;;;;13.10;4.22;;;2.10;99.90;;;;;;5055398;28;20036;-72
2023/01/18 07:16:41;;;;;;;7.50;3.90;;;2.10;99.90;;;;;;5054560;28;20381;-72
2023/01/18 07:19:07;;;;;;;8.55;3.97;;;2.00;99.90;;;;;;5057869;28;20035;-71
2023/01/18 07:21:32;;;;;;;13.15;4.25;;;1.80;99.90;;;;;;5057106;28;20025;-72
2023/01/18 07:23:58;;;;;;;9.75;4.30;;;1.80;99.90;;;;;;5051125;28;20099;-71
2023/01/18 07:26:25;;;;;;;9.65;4.55;;;2.00;99.90;;;;;;5053673;28;20501;-72
2023/01/18 07:28:53;;;;;;;13.10;5.82;;;2.10;99.90;;;;;;5057555;28;20096;-72
2023/01/18 07:31:19;;;;;;;13.10;5.78;;;2.10;99.90;;;;;;5057803;28;20037;-71
2023/01/18 07:33:44;;;;;;;14.55;4.60;;;2.10;99.90;;;;;;5057582;28;20021;-72
2023/01/18 07:36:11;;;;;;;8.32;4.60;;;2.10;99.90;;;;;;5058422;28;20029;-72
2023/01/18 07:38:37;;;;;;;13.23;5.10;;;2.10;99.90;;;;;;5057534;28;20112;-70
2023/01/18 07:41:09;;;;;;;10.05;5.32;;;2.20;99.90;;;;;;5057746;28;20025;-72
2023/01/18 07:43:38;;;;;;;10.27;6.03;;;2.30;99.90;;;;;;5058069;28;20127;-72
2023/01/18 07:46:05;;;;;;;8.60;4.57;;;2.30;99.90;;;;;;5062198;28;20029;-72
2023/01/18 07:48:32;;;;;;;6.20;3.85;;;2.30;99.90;;;;;;5057453;28;20094;-72
2023/01/18 07:51:00;;;;;;;17.33;7.93;;;2.30;99.90;;;;;;5070041;28;20040;-72
2023/01/18 07:53:29;;;;;;;16.40;4.47;;;2.30;99.90;;;;;;5076289;28;20036;-72
2023/01/18 07:55:59;;;;;;;6.57;3.63;;;2.40;99.90;;;;;;5070823;28;20086;-72
2023/01/18 07:58:26;;;;;;;14.88;5.03;;;2.50;99.90;;;;;;5060449;28;20080;-71
2023/01/18 08:00:51;;;;;;;9.60;4.57;;;2.60;99.90;;;;;;5061644;28;20033;-72
2023/01/18 08:03:18;;;;;;;9.43;4.10;;;2.50;99.90;;;;;;5077057;28;20032;-72
2023/01/18 08:05:44;;;;;;;7.78;4.15;;;2.40;99.90;;;;;;5066360;28;20110;-72
2023/01/18 08:08:15;;;;;;;10.63;4.13;;;2.40;99.90;;;;;;5061162;28;20038;-72
2023/01/18 08:10:42;;;;;;;17.42;4.35;;;2.40;99.90;;;;;;5058465;28;20489;-73
2023/01/18 08:13:08;;;;;;;8.60;3.40;;;2.40;99.90;;;;;;5058307;28;20381;-71
2023/01/18 08:15:36;;;;;;;5.35;3.80;;;2.40;99.90;;;;;;5056644;28;20048;-72
2023/01/18 08:18:03;;;;;;;11.95;4.13;;;2.40;99.90;;;;;;5056819;28;20052;-71
2023/01/18 08:20:29;;;;;;;11.23;3.60;;;2.50;99.90;;;;;;5057329;28;20028;-72
2023/01/18 08:22:56;;;;;;;18.48;6.28;;;2.60;99.90;;;;;;5057209;28;20029;-73
2023/01/18 08:25:29;;;;;;;17.08;5.88;;;2.70;99.90;;;;;;5056067;28;20048;-71
2023/01/18 08:27:59;;;;;;;9.25;4.57;;;2.70;99.90;;;;;;5056793;28;20025;-70
2023/01/18 08:30:27;;;;;;;10.70;5.65;;;2.70;99.90;;;;;;5057610;28;20052;-71
2023/01/18 08:32:57;;;;;;;14.48;6.07;;;2.60;99.90;;;;;;5068581;28;20024;-70
2023/01/18 08:35:24;;;;;;;12.55;5.97;;;2.70;99.90;;;;;;5068141;28;20033;-72
2023/01/18 08:37:51;;;;;;;10.77;6.82;;;2.50;99.90;;;;;;5056494;28;20036;-72
2023/01/18 08:40:18;;;;;;;15.48;5.80;;;2.50;99.90;;;;;;5072830;28;20028;-72
2023/01/18 08:42:45;;;;;;;8.43;4.72;;;2.50;99.90;;;;;;5071318;28;20017;-72
2023/01/18 08:45:11;;;;;;;9.98;4.78;;;2.40;99.90;;;;;;5062317;28;20031;-72
2023/01/18 08:47:37;;;;;;;9.10;4.47;;;2.40;99.90;;;;;;5072300;28;20020;-73
2023/01/18 08:50:04;;;;;;;10.65;4.68;;;2.40;99.90;;;;;;5073638;28;20361;-73
2023/01/18 08:52:30;;;;;;;14.25;5.35;;;2.30;99.90;;;;;;5071588;28;20036;-72
2023/01/18 08:54:56;;;;;;;12.30;5.10;;;2.30;99.90;;;;;;5055858;28;20021;-72
2023/01/18 08:57:22;;;;;;;13.30;6.05;;;2.40;99.90;;;;;;5058696;28;20020;-73
2023/01/18 08:59:48;;;;;;;11.10;5.85;;;2.30;99.90;;;;;;5067167;28;20423;-74
2023/01/18 09:02:15;;;;;;;13.77;5.45;;;2.40;99.90;;;;;;5059189;28;20455;-72
2023/01/18 09:04:42;;;;;;;11.40;4.72;;;2.40;99.90;;;;;;5053396;28;20025;-73
2023/01/18 09:07:08;;;;;;;6.05;3.83;;;2.50;99.90;;;;;;5069792;28;20039;-73
2023/01/18 09:09:34;;;;;;;10.73;4.30;;;2.60;99.90;;;;;;5072352;28;20377;-72
2023/01/18 09:12:00;;;;;;;8.48;4.53;;;2.70;99.90;;;;;;5055174;28;20029;-73
2023/01/18 09:14:26;;;;;;;12.20;6.13;;;2.70;99.90;;;;;;5052867;28;20033;-73
2023/01/18 09:16:51;;;;;;;12.65;5.07;;;2.70;99.90;;;;;;5068017;28;20115;-73
2023/01/18 09:19:17;;;;;;;10.63;5.32;;;2.60;99.90;;;;;;5073127;28;20023;-73
2023/01/18 09:21:45;;;;;;;12.35;4.95;;;2.50;99.90;;;;;;5064472;28;20060;-72
2023/01/18 09:24:11;;;;;;;6.35;4.18;;;2.70;99.90;;;;;;5067992;28;20074;-73
2023/01/18 09:26:37;;;;;;;12.68;5.70;;;2.80;99.90;;;;;;5072441;28;20120;-74
2023/01/18 09:29:03;;;;;;;8.48;4.88;;;2.80;99.90;;;;;;5070704;28;20112;-74
2023/01/18 09:31:29;;;;;;;11.15;4.70;;;2.90;99.90;;;;;;5056688;28;20032;-73
2023/01/18 09:33:56;;;;;;;10.63;3.95;;;3.00;99.90;;;;;;5059456;28;20014;-73
2023/01/18 09:36:25;;;;;;;8.52;4.25;;;3.10;99.90;;;;;;5052867;28;20029;-73
2023/01/18 09:38:51;;;;;;;9.18;4.43;;;3.20;99.90;;;;;;5055887;28;20021;-74
2023/01/18 09:41:37;;;;;;;9.50;4.53;;;3.30;99.90;;;;;;5053221;28;20886;-73
2023/01/18 09:44:28;;;;;;;15.82;5.53;;;3.40;99.90;;;;;;5054955;28;20108;-74
2023/01/18 09:46:58;;;;;;;9.88;3.42;;;3.60;99.90;;;;;;5054169;28;20017;-74
2023/01/18 09:49:41;;;;;;;13.90;4.72;;;3.60;99.90;;;;;;5051045;28;20537;-74
2023/01/18 09:52:19;;;;;;;15.77;4.63;;;3.70;99.90;;;;;;5065411;28;20315;-74
2023/01/18 09:54:57;;;;;;;11.48;5.22;;;3.70;99.90;;;;;;5055352;28;20075;-74
2023/01/18 09:57:34;;;;;;;13.00;4.80;;;3.80;99.90;;;;;;5052573;28;20478;-74
2023/01/18 10:00:03;;;;;;;10.35;5.47;;;3.70;99.90;;;;;;5053127;28;20033;-75
2023/01/18 10:02:38;;;;;;;11.75;4.88;;;3.70;99.90;;;;;;5052198;28;20028;-74
2023/01/18 10:05:25;;;;;;;11.43;7.18;;;3.70;99.90;;;;;;5050624;28;20124;-75
2023/01/18 10:08:01;;;;;;;13.10;7.57;;;3.70;99.90;;;;;;5058885;28;20525;-70
2023/01/18 10:10:34;;;;;;;14.35;7.10;;;3.70;99.90;;;;;;5059080;28;20024;-71
2023/01/18 10:13:15;;;;;;;13.93;5.95;;;3.70;99.90;;;;;;5053204;28;20477;-70
2023/01/18 10:15:42;;;;;;;13.63;5.22;;;3.80;99.90;;;;;;5057225;28;20102;-71
2023/01/18 10:18:08;;;;;;;16.85;6.05;;;3.80;99.90;;;;;;5050134;28;20033;-70
2023/01/18 10:20:43;;;;;;;14.73;5.07;;;3.80;99.90;;;;;;5052078;28;20029;-70
2023/01/18 10:23:17;;;;;;;12.70;4.75;;;3.80;99.90;;;;;;5052169;28;20374;-71
2023/01/18 10:25:52;;;;;;;7.53;4.03;;;3.80;99.90;;;;;;5052094;28;20025;-70
2023/01/18 10:28:24;;;;;;;15.50;4.63;;;3.90;99.90;;;;;;5066430;28;20059;-71
2023/01/18 10:30:55;;;;;;;7.82;4.30;;;3.90;99.90;;;;;;5053039;28;20545;-73
2023/01/18 10:33:24;;;;;;;8.60;4.27;;;4.10;99.90;;;;;;5060683;28;20029;-71
2023/01/18 10:35:54;;;;;;;7.43;4.53;;;4.30;99.90;;;;;;5059763;28;20036;-73
2023/01/18 10:38:23;;;;;;;9.63;3.90;;;4.40;99.90;;;;;;5069399;28;20024;-72
2023/01/18 10:41:00;;;;;;;9.38;3.60;;;4.50;99.90;;;;;;5062568;28;20023;-72
2023/01/18 10:43:28;;;;;;;9.38;4.18;;;4.70;99.90;;;;;;5054454;28;20028;-72
2023/01/18 10:45:54;;;;;;;10.57;4.05;;;4.70;99.90;;;;;;5058049;28;20016;-72
2023/01/18 10:48:27;;;;;;;7.22;3.65;;;4.70;99.90;;;;;;5066328;28;20143;-72
2023/01/18 10:51:04;;;;;;;11.73;3.42;;;4.80;99.90;;;;;;5063715;28;20642;-72
2023/01/18 10:53:37;;;;;;;8.05;3.88;;;4.80;99.90;;;;;;5057676;28;20017;-72
2023/01/18 10:56:17;;;;;;;9.38;4.28;;;4.80;99.90;;;;;;5051413;28;20127;-72
2023/01/18 10:58:45;;;;;;;9.50;3.50;;;4.90;99.90;;;;;;5052723;28;20017;-73
2023/01/18 11:01:27;;;;;;;9.25;3.50;;;5.00;99.90;;;;;;5052441;28;20458;-73
2023/01/18 11:03:53;;;;;;;10.90;4.23;;;5.10;99.90;;;;;;5061976;28;20479;-73
2023/01/18 11:06:21;;;;;;;6.60;3.45;;;5.40;99.90;;;;;;5051691;28;20033;-74
2023/01/18 11:08:48;;;;;;;6.75;3.42;;;5.60;99.90;;;;;;5059588;28;20622;-74
2023/01/18 11:14:34;;;;;;;5.97;4.28;;;5.90;99.90;;;;;;5051081;28;20389;-73
2023/01/18 11:17:10;;;;;;;5.82;3.38;;;5.70;99.90;;;;;;5060728;28;20048;-72
2023/01/18 11:19:38;;;;;;;9.95;3.80;;;5.60;99.90;;;;;;5065957;28;20033;-74
2023/01/18 11:22:11;;;;;;;6.82;3.83;;;5.60;99.90;;;;;;5051131;28;20029;-73
2023/01/18 11:24:38;;;;;;;4.20;2.80;;;5.60;99.90;;;;;;5050964;28;20078;-73
2023/01/18 11:27:22;;;;;;;4.93;2.90;;;5.70;99.90;;;;;;5057232;28;20024;-73
2023/01/18 11:29:49;;;;;;;6.13;3.83;;;5.70;99.90;;;;;;5052982;28;20029;-73
2023/01/18 11:32:26;;;;;;;6.25;3.28;;;5.70;99.90;;;;;;5056720;28;20071;-73
2023/01/18 11:34:54;;;;;;;9.32;3.20;;;5.80;99.90;;;;;;5064263;28;20449;-73
2023/01/18 11:37:34;;;;;;;8.27;2.88;;;5.80;99.90;;;;;;5055664;28;20036;-73
2023/01/18 11:40:33;;;;;;;7.75;2.55;;;5.80;99.90;;;;;;5052022;28;20075;-73
2023/01/18 11:43:08;;;;;;;6.53;2.72;;;6.00;99.90;;;;;;5038864;28;20040;-73
2023/01/18 11:45:58;;;;;;;5.65;2.70;;;6.00;99.90;;;;;;5050788;28;20021;-73
2023/01/18 11:48:43;;;;;;;6.18;2.20;;;6.10;99.90;;;;;;5061533;28;20025;-72
2023/01/18 11:51:23;;;;;;;8.63;2.78;;;6.10;99.90;;;;;;5062263;28;20097;-73
2023/01/18 11:54:18;;;;;;;3.88;2.50;;;6.20;99.90;;;;;;5061151;28;20032;-74
2023/01/18 11:56:49;;;;;;;2.30;1.88;;;6.20;99.90;;;;;;5047605;28;20532;-74
2023/01/18 11:59:29;;;;;;;2.88;2.40;;;6.20;99.90;;;;;;5065280;28;20029;-72
2023/01/18 12:02:29;;;;;;;4.57;2.45;;;6.20;99.90;;;;;;5050675;28;20480;-77
2023/01/18 12:05:24;;;;;;;3.03;1.92;;;6.20;99.90;;;;;;5053817;28;20041;-75
2023/01/18 12:08:37;;;;;;;6.93;1.70;;;6.30;99.90;;;;;;5070654;28;20017;-77
2023/01/18 12:11:08;;;;;;;;;;;6.50;99.90;;;;;;5065957;28;20024;-76
2023/01/18 12:13:34;;;;;;;3.58;1.98;;;6.80;99.90;;;;;;5066313;28;19930;-77
2023/01/18 12:16:12;;;;;;;5.97;1.90;;;6.90;99.90;;;;;;5074301;28;20040;-77
2023/01/18 12:19:15;;;;;;;4.63;2.25;;;7.00;99.90;;;;;;5074652;28;20049;-78
2023/01/18 12:22:11;;;;;;;3.83;1.85;;;7.20;99.90;;;;;;5074456;28;20036;-77
2023/01/18 12:24:56;;;;;;;3.78;1.80;;;7.20;99.90;;;;;;5074242;28;20036;-78
2023/01/18 12:27:34;;;;;;;5.68;2.17;;;7.30;99.90;;;;;;5069412;28;20036;-76
2023/01/18 12:30:08;;;;;;;7.32;2.17;;;7.50;99.90;;;;;;5053797;28;20028;-75
2023/01/18 12:32:48;;;;;;;6.55;2.72;;;7.90;99.90;;;;;;5059506;28;20434;-77
2023/01/18 12:35:33;;;;;;;4.35;2.17;;;8.20;99.90;;;;;;5057066;28;20047;-77
2023/01/18 12:38:17;;;;;;;5.95;2.28;;;8.50;99.90;;;;;;5059481;28;20024;-73
2023/01/18 12:40:57;;;;;;;2.65;1.80;;;9.00;99.90;;;;;;5058092;28;20028;-75
2023/01/18 12:43:43;;;;;;;4.05;2.03;;;9.70;99.90;;;;;;5053929;28;20064;-76
2023/01/18 12:46:34;;;;;;;4.63;2.15;;;10.30;99.90;;;;;;5058839;28;20060;-76
2023/01/18 12:49:20;;;;;;;4.30;1.95;;;10.70;99.90;;;;;;5053757;28;20028;-77
2023/01/18 12:51:54;;;;;;;5.10;1.77;;;11.40;99.90;;;;;;5055075;28;20446;-77
2023/01/18 12:55:05;;;;;;;4.15;1.80;;;11.60;99.90;;;;;;5053836;28;20548;-77
2023/01/18 12:57:33;;;;;;;3.75;2.10;;;11.70;99.90;;;;;;5053932;28;20029;-80
2023/01/18 13:00:06;;;;;;;5.05;2.42;;;11.90;99.90;;;;;;5056894;28;20036;-77
2023/01/18 13:02:43;;;;;;;5.47;2.15;;;12.20;99.90;;;;;;5054216;28;20037;-78
2023/01/18 13:05:21;;;;;;;4.85;1.90;;;12.40;99.90;;;;;;5053752;28;20025;-78
2023/01/18 13:07:57;;;;;;;3.90;2.20;;;11.90;99.90;;;;;;5053930;28;20028;-78
2023/01/18 13:10:27;;;;;;;4.40;1.80;;;12.30;99.90;;;;;;5053451;28;20060;-77
2023/01/18 13:12:55;;;;;;;5.03;1.88;;;12.80;99.90;;;;;;5059404;28;20024;-77
2023/01/18 13:15:30;;;;;;;5.00;2.08;;;12.60;99.90;;;;;;5054472;28;20080;-77
2023/01/18 13:18:06;;;;;;;3.40;2.08;;;12.70;99.90;;;;;;5064270;28;20029;-77
2023/01/18 13:20:44;;;;;;;4.03;1.92;;;13.10;99.90;;;;;;5070538;28;20028;-75
2023/01/18 13:23:28;;;;;;;5.57;1.95;;;13.00;99.90;;;;;;5066417;28;20021;-74
2023/01/18 13:26:12;;;;;;;7.07;1.88;;;13.30;99.90;;;;;;5054181;28;20060;-77
2023/01/18 13:28:38;;;;;;;4.47;2.20;;;13.20;99.90;;;;;;5051790;28;20465;-77
2023/01/18 13:31:05;;;;;;;4.85;1.80;;;13.30;99.90;;;;;;5053295;28;20029;-78
2023/01/18 13:33:34;;;;;;;3.40;1.98;;;13.50;99.90;;;;;;5060370;28;20024;-73
2023/01/18 13:36:13;;;;;;;2.58;1.73;;;13.30;99.90;;;;;;5064182;28;20021;-75
2023/01/18 13:38:53;;;;;;;3.85;2.20;;;13.20;99.90;;;;;;5052763;28;20013;-75
2023/01/18 13:41:28;;;;;;;3.30;1.90;;;12.80;99.90;;;;;;5068521;28;20043;-75
2023/01/18 13:43:56;;;;;;;2.67;1.63;;;13.20;99.90;;;;;;5072832;28;20054;-79
2023/01/18 13:46:24;;;;;;;4.50;2.05;;;12.70;99.90;;;;;;5072751;28;20533;-76
2023/01/18 13:48:59;;;;;;;4.95;1.85;;;12.60;99.90;;;;;;5071774;28;20052;-76